createdAt,value
2023-02-26T00:01:00.783Z,1.09
2023-02-26T00:03:27.278Z,1.27
2023-02-26T00:05:53.688Z,1.09
2023-02-26T00:08:20.048Z,1.11
2023-02-26T00:10:47.784Z,1.12
2023-02-26T00:13:14.458Z,1.17
2023-02-26T00:15:41.003Z,1.35
2023-02-26T00:18:12.925Z,1.24
2023-02-26T00:20:39.618Z,1.08
2023-02-26T00:23:06.685Z,1.02
2023-02-26T00:25:33.058Z,1.09
2023-02-26T00:27:59.685Z,1.05
2023-02-26T00:30:26.461Z,1.02
2023-02-26T00:32:53.074Z,1.12
2023-02-26T00:35:19.921Z,1.22
2023-02-26T00:38:02.366Z,1.09
2023-02-26T00:40:49.276Z,1.07
2023-02-26T00:43:25.050Z,1.20
2023-02-26T00:46:03.632Z,1.05
2023-02-26T00:48:59.171Z,1.08
2023-02-26T00:51:36.530Z,1.09
2023-02-26T00:54:10.918Z,1.04
2023-02-26T00:56:37.650Z,0.94
2023-02-26T00:59:04.064Z,0.96
2023-02-26T01:01:30.632Z,0.86
2023-02-26T01:03:57.401Z,0.94
2023-02-26T01:06:27.853Z,0.91
2023-02-26T01:09:15.537Z,0.94
2023-02-26T01:11:42.133Z,1.06
2023-02-26T01:14:08.780Z,1.05
2023-02-26T01:16:44.419Z,0.97
2023-02-26T01:19:33.287Z,0.94
2023-02-26T01:22:08.093Z,0.75
2023-02-26T01:24:36.898Z,0.91
2023-02-26T01:27:03.632Z,0.69
2023-02-26T01:29:30.167Z,0.76
2023-02-26T01:32:19.312Z,0.69
2023-02-26T01:34:54.961Z,0.64
2023-02-26T01:37:55.477Z,0.30
2023-02-26T01:41:06.652Z,0.44
2023-02-26T01:43:44.305Z,0.49
2023-02-26T01:46:21.946Z,0.43
2023-02-26T01:48:54.384Z,0.36
2023-02-26T01:51:51.880Z,0.44
2023-02-26T01:54:29.477Z,0.40
2023-02-26T01:57:07.237Z,0.38
2023-02-26T01:59:36.542Z,0.23
2023-02-26T02:02:06.431Z,0.29
2023-02-26T02:04:33.631Z,0.26
2023-02-26T02:07:00.790Z,0.16
2023-02-26T02:09:27.314Z,0.10
2023-02-26T02:12:06.684Z,0.11
2023-02-26T02:15:11.513Z,0.13
2023-02-26T02:17:53.076Z,-0.18
2023-02-26T02:20:29.798Z,0.00
2023-02-26T02:23:15.047Z,-0.06
2023-02-26T02:26:15.799Z,0.14
2023-02-26T02:29:13.465Z,0.25
2023-02-26T02:31:52.150Z,0.08
2023-02-26T02:34:24.113Z,0.04
2023-02-26T02:36:59.442Z,-0.04
2023-02-26T02:39:46.001Z,-0.15
2023-02-26T02:42:34.453Z,-0.29
2023-02-26T02:45:09.386Z,-0.38
2023-02-26T02:47:39.449Z,-0.40
2023-02-26T02:50:30.512Z,-0.34
2023-02-26T02:53:02.274Z,-0.46
2023-02-26T02:55:39.516Z,-0.50
2023-02-26T02:58:14.938Z,-0.56
2023-02-26T03:00:48.961Z,-0.59
2023-02-26T03:03:31.612Z,-0.65
2023-02-26T03:05:58.208Z,-0.65
2023-02-26T03:08:30.377Z,-0.81
2023-02-26T03:10:57.697Z,-0.90
2023-02-26T03:13:25.631Z,-0.61
2023-02-26T03:15:59.629Z,-0.62
2023-02-26T03:18:58.333Z,-0.70
2023-02-26T03:21:31.793Z,-0.78
2023-02-26T03:24:16.013Z,-0.82
2023-02-26T03:26:58.195Z,-0.80
2023-02-26T03:29:40.674Z,-0.88
2023-02-26T03:32:18.884Z,-0.80
2023-02-26T03:35:10.665Z,-0.88
2023-02-26T03:37:42.121Z,-0.97
2023-02-26T03:40:16.805Z,-0.99
2023-02-26T03:42:49.253Z,-0.90
2023-02-26T03:45:25.232Z,-0.93
2023-02-26T03:47:53.884Z,-1.01
2023-02-26T03:50:51.395Z,-0.90
2023-02-26T03:53:24.464Z,-0.79
2023-02-26T03:56:16.169Z,-0.85
2023-02-26T03:58:42.918Z,-0.97
2023-02-26T04:01:18.929Z,-0.91
2023-02-26T04:04:00.960Z,-0.76
2023-02-26T04:06:28.317Z,-0.93
2023-02-26T04:08:54.918Z,-0.81
2023-02-26T04:11:22.997Z,-0.82
2023-02-26T04:13:50.547Z,-0.92
2023-02-26T04:16:18.597Z,-0.87
2023-02-26T04:18:45.250Z,-0.90
2023-02-26T04:21:19.024Z,-0.94
2023-02-26T04:23:45.462Z,-1.04
2023-02-26T04:26:13.170Z,-1.06
2023-02-26T04:28:40.697Z,-1.00
2023-02-26T04:31:07.736Z,-1.12
2023-02-26T04:33:34.268Z,-1.04
2023-02-26T04:36:01.095Z,-1.00
2023-02-26T04:38:27.862Z,-1.00
2023-02-26T04:40:54.297Z,-0.97
2023-02-26T04:43:20.954Z,-0.90
2023-02-26T04:45:48.171Z,-0.93
2023-02-26T04:48:15.994Z,-0.83
2023-02-26T04:50:43.118Z,-0.78
2023-02-26T04:53:09.498Z,-0.89
2023-02-26T04:55:36.825Z,-0.97
2023-02-26T04:58:04.169Z,-0.94
2023-02-26T05:00:30.620Z,-0.99
2023-02-26T05:02:57.026Z,-1.17
2023-02-26T05:05:23.510Z,-1.17
2023-02-26T05:07:49.971Z,-1.21
2023-02-26T05:10:16.601Z,-1.13
2023-02-26T05:12:42.985Z,-1.19
2023-02-26T05:15:09.730Z,-1.16
2023-02-26T05:17:36.805Z,-1.18
2023-02-26T05:20:04.156Z,-1.14
2023-02-26T05:22:30.655Z,-1.35
2023-02-26T05:24:57.041Z,-1.39
2023-02-26T05:27:23.460Z,-1.27
2023-02-26T05:29:49.814Z,-1.21
2023-02-26T05:32:16.170Z,-1.39
2023-02-26T05:34:42.592Z,-1.16
2023-02-26T05:37:08.951Z,-1.19
2023-02-26T05:39:35.435Z,-1.34
2023-02-26T05:42:01.805Z,-1.09
2023-02-26T05:44:28.290Z,-1.14
2023-02-26T05:46:54.665Z,-1.10
2023-02-26T05:49:21.056Z,-1.23
2023-02-26T05:51:47.403Z,-1.29
2023-02-26T05:54:13.760Z,-1.31
2023-02-26T05:56:40.233Z,-1.14
2023-02-26T05:59:06.840Z,-1.03
2023-02-26T06:01:33.342Z,-0.92
2023-02-26T06:03:59.841Z,-0.91
2023-02-26T06:06:27.033Z,-0.93
2023-02-26T06:08:53.660Z,-1.16
2023-02-26T06:11:20.060Z,-0.92
2023-02-26T06:13:46.683Z,-0.99
2023-02-26T06:16:13.092Z,-0.99
2023-02-26T06:18:39.528Z,-0.83
2023-02-26T06:21:05.891Z,-0.73
2023-02-26T06:23:32.299Z,-0.62
2023-02-26T06:25:59.873Z,-0.49
2023-02-26T06:28:26.551Z,-0.44
2023-02-26T06:30:53.831Z,-0.40
2023-02-26T06:33:20.792Z,-0.52
2023-02-26T06:35:47.181Z,-0.40
2023-02-26T06:38:13.670Z,-0.49
2023-02-26T06:40:40.183Z,-0.52
2023-02-26T06:43:06.671Z,-0.39
2023-02-26T06:45:33.095Z,-0.48
2023-02-26T06:47:59.532Z,-0.55
2023-02-26T06:50:25.945Z,-0.50
2023-02-26T06:52:52.374Z,-0.35
2023-02-26T06:55:18.791Z,-0.37
2023-02-26T06:57:45.173Z,-0.40
2023-02-26T07:00:12.231Z,-0.32
2023-02-26T07:02:38.740Z,-0.31
2023-02-26T07:05:05.526Z,-0.32
2023-02-26T07:07:32.080Z,-0.33
2023-02-26T07:09:58.449Z,-0.43
2023-02-26T07:12:24.826Z,-0.44
2023-02-26T07:14:51.194Z,-0.57
2023-02-26T07:17:20.785Z,-0.50
2023-02-26T07:19:51.998Z,-0.47
2023-02-26T07:22:21.889Z,-0.37
2023-02-26T07:24:49.814Z,-0.28
2023-02-26T07:27:16.584Z,-0.23
2023-02-26T07:29:42.936Z,-0.21
2023-02-26T07:32:09.617Z,-0.09
2023-02-26T07:34:36.042Z,0.02
2023-02-26T07:37:02.423Z,0.17
2023-02-26T07:39:28.813Z,0.26
2023-02-26T07:41:55.445Z,0.24
2023-02-26T07:44:21.794Z,0.38
2023-02-26T07:46:48.204Z,0.63
2023-02-26T07:49:14.612Z,0.84
2023-02-26T07:51:45.653Z,0.97
2023-02-26T07:54:13.442Z,1.40
2023-02-26T07:56:41.198Z,1.33
2023-02-26T07:59:07.596Z,1.41
2023-02-26T08:01:34.159Z,1.81
2023-02-26T08:04:00.995Z,2.85
2023-02-26T08:06:28.318Z,3.80
2023-02-26T08:08:54.850Z,4.75
2023-02-26T08:11:21.238Z,5.07
2023-02-26T08:13:47.668Z,5.86
2023-02-26T08:16:14.193Z,6.27
2023-02-26T08:18:40.716Z,6.85
2023-02-26T08:21:07.106Z,6.98
2023-02-26T08:23:33.498Z,7.25
2023-02-26T08:26:11.073Z,7.06
2023-02-26T08:28:37.530Z,7.34
2023-02-26T08:31:04.381Z,7.26
2023-02-26T08:33:31.464Z,7.66
2023-02-26T08:35:59.017Z,8.38
2023-02-26T08:38:27.697Z,7.95
2023-02-26T08:40:54.223Z,8.09
2023-02-26T08:43:20.697Z,8.12
2023-02-26T08:45:48.050Z,8.42
2023-02-26T08:48:14.477Z,8.94
2023-02-26T08:50:40.889Z,8.21
2023-02-26T08:53:07.755Z,8.04
2023-02-26T08:55:34.208Z,9.29
2023-02-26T08:58:00.704Z,9.43
2023-02-26T09:00:27.107Z,8.70
2023-02-26T09:02:53.599Z,9.46
2023-02-26T09:05:20.272Z,9.12
2023-02-26T09:07:46.706Z,9.21
2023-02-26T09:10:14.197Z,9.59
2023-02-26T09:12:40.934Z,8.95
2023-02-26T09:15:09.240Z,9.54
2023-02-26T09:17:36.311Z,9.12
2023-02-26T09:20:04.721Z,9.93
2023-02-26T09:22:31.267Z,9.61
2023-02-26T09:24:57.904Z,9.70
2023-02-26T09:27:25.136Z,9.13
2023-02-26T09:29:51.519Z,10.27
2023-02-26T09:32:18.063Z,9.20
2023-02-26T09:34:44.587Z,10.34
2023-02-26T09:37:11.019Z,10.29
2023-02-26T09:39:37.416Z,10.06
2023-02-26T09:42:37.134Z,10.13
2023-02-26T09:45:04.777Z,10.34
2023-02-26T09:47:40.837Z,9.01
2023-02-26T09:50:17.032Z,8.95
2023-02-26T09:53:00.398Z,10.14
2023-02-26T09:55:39.858Z,10.18
2023-02-26T09:58:17.642Z,9.66
2023-02-26T10:01:11.266Z,10.02
2023-02-26T10:04:05.347Z,10.18
2023-02-26T10:06:56.729Z,10.44
2023-02-26T10:09:39.072Z,11.04
2023-02-26T10:12:22.530Z,11.12
2023-02-26T10:15:00.037Z,11.43
2023-02-26T10:17:34.020Z,10.81
2023-02-26T10:20:11.856Z,10.31
2023-02-26T10:22:48.322Z,9.98
2023-02-26T10:25:23.911Z,10.07
2023-02-26T10:28:04.084Z,10.18
2023-02-26T10:30:34.610Z,10.35
2023-02-26T10:33:15.449Z,10.16
2023-02-26T10:35:52.064Z,11.13
2023-02-26T10:38:24.643Z,10.88
2023-02-26T10:41:02.178Z,10.13
2023-02-26T10:43:35.349Z,9.64
2023-02-26T10:46:20.702Z,10.55
2023-02-26T10:48:52.801Z,10.36
2023-02-26T10:51:26.027Z,9.06
2023-02-26T10:54:00.851Z,9.50
2023-02-26T10:56:32.962Z,9.40
2023-02-26T10:59:00.373Z,8.85
2023-02-26T11:01:29.814Z,8.32
2023-02-26T11:04:03.681Z,8.85
2023-02-26T11:06:35.385Z,8.59
2023-02-26T11:09:02.826Z,7.93
2023-02-26T11:11:54.216Z,8.26
2023-02-26T11:14:22.112Z,8.34
2023-02-26T11:16:55.694Z,7.39
2023-02-26T11:19:35.645Z,8.01
2023-02-26T11:22:04.404Z,8.58
2023-02-26T11:24:44.645Z,8.49
2023-02-26T11:27:15.362Z,8.64
2023-02-26T11:29:47.075Z,9.41
2023-02-26T11:32:29.481Z,9.53
2023-02-26T11:34:55.923Z,8.95
2023-02-26T11:37:35.966Z,9.60
2023-02-26T11:40:15.445Z,9.45
2023-02-26T11:42:49.643Z,9.13
2023-02-26T11:45:18.657Z,8.96
2023-02-26T11:47:46.917Z,9.81
2023-02-26T11:50:23.089Z,9.50
2023-02-26T11:52:57.981Z,9.73
2023-02-26T11:55:30.057Z,9.98
2023-02-26T11:57:57.185Z,9.10
2023-02-26T12:00:31.287Z,8.24
2023-02-26T12:03:04.823Z,9.19
2023-02-26T12:05:31.881Z,9.75
2023-02-26T12:07:58.605Z,10.03
2023-02-26T12:10:39.787Z,9.68
2023-02-26T12:13:14.841Z,9.97
2023-02-26T12:16:14.139Z,10.23
2023-02-26T12:19:27.865Z,9.76
2023-02-26T12:22:32.564Z,9.52
2023-02-26T12:25:18.451Z,9.43
2023-02-26T12:28:03.269Z,9.50
2023-02-26T12:30:45.140Z,8.66
2023-02-26T12:33:33.026Z,8.76
2023-02-26T12:36:21.803Z,7.55
2023-02-26T12:38:57.223Z,8.05
2023-02-26T12:41:40.324Z,8.94
2023-02-26T12:44:19.123Z,9.43
2023-02-26T12:46:48.423Z,9.97
2023-02-26T12:49:25.587Z,10.72
2023-02-26T12:52:29.313Z,10.61
2023-02-26T12:55:17.292Z,8.72
2023-02-26T12:58:25.321Z,7.71
2023-02-26T13:01:02.516Z,9.12
2023-02-26T13:03:44.307Z,8.84
2023-02-26T13:06:40.287Z,9.16
2023-02-26T13:09:19.987Z,9.61
2023-02-26T13:12:11.137Z,9.96
2023-02-26T13:14:49.530Z,9.72
2023-02-26T13:17:18.871Z,8.37
2023-02-26T13:19:56.233Z,9.30
2023-02-26T13:22:32.324Z,9.84
2023-02-26T13:25:06.510Z,9.72
2023-02-26T13:27:37.558Z,9.76
2023-02-26T13:30:12.991Z,9.43
2023-02-26T13:32:41.908Z,9.62
2023-02-26T13:35:28.194Z,9.36
2023-02-26T13:37:57.653Z,9.41
2023-02-26T13:40:48.239Z,9.38
2023-02-26T13:43:24.982Z,9.18
2023-02-26T13:45:54.020Z,8.91
2023-02-26T13:48:37.582Z,8.59
2023-02-26T13:51:10.469Z,8.05
2023-02-26T13:53:39.818Z,8.24
2023-02-26T13:56:32.460Z,8.15
2023-02-26T13:59:06.097Z,8.77
2023-02-26T14:01:52.139Z,8.81
2023-02-26T14:04:22.348Z,8.51
2023-02-26T14:06:49.945Z,8.12
2023-02-26T14:09:22.372Z,7.98
2023-02-26T14:11:55.829Z,8.58
2023-02-26T14:14:22.136Z,8.84
2023-02-26T14:16:54.508Z,8.29
2023-02-26T14:19:26.243Z,7.97
2023-02-26T14:21:53.964Z,7.63
2023-02-26T14:24:36.401Z,7.57
2023-02-26T14:27:12.083Z,7.61
2023-02-26T14:30:00.843Z,7.70
2023-02-26T14:32:44.908Z,7.29
2023-02-26T14:35:35.125Z,7.17
2023-02-26T14:38:13.036Z,7.70
2023-02-26T14:40:46.209Z,7.71
2023-02-26T14:43:21.213Z,8.00
2023-02-26T14:45:49.667Z,7.89
2023-02-26T14:48:25.126Z,7.16
2023-02-26T14:51:06.594Z,6.99
2023-02-26T14:54:03.639Z,6.82
2023-02-26T14:56:41.989Z,6.70
2023-02-26T14:59:33.356Z,6.48
2023-02-26T15:02:14.305Z,6.71
2023-02-26T15:04:51.425Z,7.21
2023-02-26T15:07:55.522Z,6.92
2023-02-26T15:10:40.267Z,6.54
2023-02-26T15:14:01.416Z,6.66
2023-02-26T15:17:13.646Z,6.70
2023-02-26T15:20:01.871Z,6.80
2023-02-26T15:22:38.760Z,6.50
2023-02-26T15:25:11.906Z,6.60
2023-02-26T15:27:39.014Z,6.74
2023-02-26T15:30:05.970Z,6.80
2023-02-26T15:32:37.824Z,6.76
2023-02-26T15:35:14.247Z,6.43
2023-02-26T15:37:40.621Z,6.16
2023-02-26T15:40:08.181Z,6.08
2023-02-26T15:42:41.001Z,5.99
2023-02-26T15:45:21.788Z,6.16
2023-02-26T15:47:55.458Z,6.08
2023-02-26T15:50:28.191Z,5.93
2023-02-26T15:52:58.749Z,6.32
2023-02-26T15:55:25.883Z,6.03
2023-02-26T15:57:54.506Z,6.12
2023-02-26T16:00:25.685Z,5.68
2023-02-26T16:02:57.231Z,5.69
2023-02-26T16:05:25.887Z,5.66
2023-02-26T16:07:52.323Z,5.94
2023-02-26T16:10:32.222Z,5.98
2023-02-26T16:12:59.849Z,5.31
2023-02-26T16:15:36.560Z,5.59
2023-02-26T16:18:07.298Z,5.40
2023-02-26T16:20:41.527Z,5.64
2023-02-26T16:23:17.706Z,5.33
2023-02-26T16:25:54.715Z,5.47
2023-02-26T16:28:24.406Z,5.52
2023-02-26T16:30:54.497Z,5.55
2023-02-26T16:33:23.840Z,5.40
2023-02-26T16:35:57.444Z,5.43
2023-02-26T16:38:27.984Z,5.64
2023-02-26T16:41:08.189Z,5.33
2023-02-26T16:43:50.426Z,5.20
2023-02-26T16:46:22.559Z,5.07
2023-02-26T16:48:53.378Z,5.11
2023-02-26T16:51:22.886Z,5.01
2023-02-26T16:53:52.777Z,4.98
2023-02-26T16:56:22.542Z,4.89
2023-02-26T16:58:55.968Z,4.89
2023-02-26T17:01:23.222Z,4.92
2023-02-26T17:03:55.639Z,4.89
2023-02-26T17:06:22.473Z,4.74
2023-02-26T17:08:56.607Z,4.88
2023-02-26T17:11:33.060Z,4.98
2023-02-26T17:14:25.278Z,4.90
2023-02-26T17:16:53.179Z,4.80
2023-02-26T17:19:19.834Z,5.05
2023-02-26T17:21:48.159Z,5.00
2023-02-26T17:24:18.751Z,4.97
2023-02-26T17:26:46.008Z,4.79
2023-02-26T17:29:20.570Z,4.86
2023-02-26T17:31:47.395Z,4.84
2023-02-26T17:34:14.005Z,4.71
2023-02-26T17:36:40.709Z,4.66
2023-02-26T17:39:07.291Z,4.59
2023-02-26T17:41:34.238Z,4.61
2023-02-26T17:44:00.640Z,4.57
2023-02-26T17:46:26.994Z,4.49
2023-02-26T17:48:53.433Z,4.44
2023-02-26T17:51:19.825Z,4.43
2023-02-26T17:53:46.656Z,4.39
2023-02-26T17:56:25.882Z,4.33
2023-02-26T17:58:57.009Z,4.14
2023-02-26T18:01:24.037Z,4.09
2023-02-26T18:03:51.012Z,4.06
2023-02-26T18:06:17.646Z,4.00
2023-02-26T18:08:44.687Z,3.95
2023-02-26T18:11:13.569Z,3.90
2023-02-26T18:13:39.988Z,3.95
2023-02-26T18:16:07.009Z,3.78
2023-02-26T18:18:33.640Z,3.81
2023-02-26T18:21:00.923Z,3.72
2023-02-26T18:23:27.273Z,3.73
2023-02-26T18:25:54.952Z,3.62
2023-02-26T18:28:26.636Z,3.57
2023-02-26T18:30:53.816Z,3.52
2023-02-26T18:33:21.442Z,3.52
2023-02-26T18:35:53.302Z,3.62
2023-02-26T18:38:23.125Z,3.23
2023-02-26T18:40:50.194Z,3.47
2023-02-26T18:43:16.656Z,3.39
2023-02-26T18:45:45.865Z,3.36
2023-02-26T18:48:15.932Z,3.24
2023-02-26T18:50:43.610Z,3.20
2023-02-26T18:53:10.339Z,3.15
2023-02-26T18:55:37.355Z,3.22
2023-02-26T18:58:04.666Z,3.24
2023-02-26T19:00:31.710Z,3.19
2023-02-26T19:02:58.134Z,3.32
2023-02-26T19:05:26.478Z,3.28
2023-02-26T19:07:55.873Z,3.19
2023-02-26T19:10:22.305Z,3.09
2023-02-26T19:12:50.716Z,3.18
2023-02-26T19:15:17.851Z,3.17
2023-02-26T19:17:44.726Z,3.23
2023-02-26T19:20:12.398Z,3.20
2023-02-26T19:22:38.894Z,3.07
2023-02-26T19:25:06.386Z,2.99
2023-02-26T19:27:33.051Z,3.10
2023-02-26T19:29:59.478Z,2.98
2023-02-26T19:32:26.576Z,2.90
2023-02-26T19:34:53.294Z,2.75
2023-02-26T19:37:19.781Z,2.88
2023-02-26T19:39:46.233Z,2.83
2023-02-26T19:42:12.645Z,2.85
2023-02-26T19:44:39.040Z,2.82
2023-02-26T19:47:05.901Z,2.70
2023-02-26T19:49:32.467Z,2.73
2023-02-26T19:51:59.025Z,2.55
2023-02-26T19:54:25.655Z,2.65
2023-02-26T19:56:52.053Z,2.50
2023-02-26T19:59:19.147Z,2.59
2023-02-26T20:01:49.179Z,2.60
2023-02-26T20:04:17.217Z,2.66
2023-02-26T20:06:43.852Z,2.75
2023-02-26T20:09:12.086Z,2.84
2023-02-26T20:11:39.573Z,2.96
2023-02-26T20:14:06.204Z,3.01
2023-02-26T20:16:32.720Z,2.78
2023-02-26T20:18:59.961Z,2.85
2023-02-26T20:21:28.105Z,2.72
2023-02-26T20:23:54.804Z,2.69
2023-02-26T20:26:21.248Z,2.59
2023-02-26T20:28:47.778Z,2.62
2023-02-26T20:31:14.300Z,2.64
2023-02-26T20:33:40.852Z,2.55
2023-02-26T20:36:09.139Z,2.69
2023-02-26T20:38:35.977Z,2.70
2023-02-26T20:41:02.820Z,2.70
2023-02-26T20:43:29.430Z,2.52
2023-02-26T20:45:56.590Z,2.24
2023-02-26T20:48:24.000Z,2.09
2023-02-26T20:50:53.498Z,2.18
2023-02-26T20:53:21.615Z,2.08
2023-02-26T20:55:48.625Z,1.90
2023-02-26T20:58:15.602Z,1.85
2023-02-26T21:00:42.567Z,1.91
2023-02-26T21:03:09.421Z,2.01
2023-02-26T21:05:36.002Z,2.04
2023-02-26T21:08:04.161Z,2.05
2023-02-26T21:10:30.984Z,1.98
2023-02-26T21:12:57.359Z,1.98
2023-02-26T21:15:23.735Z,1.87
2023-02-26T21:17:50.271Z,1.77
2023-02-26T21:20:17.975Z,1.74
2023-02-26T21:22:46.112Z,1.78
2023-02-26T21:25:12.522Z,1.65
2023-02-26T21:27:39.219Z,1.60
2023-02-26T21:30:06.957Z,1.79
2023-02-26T21:32:33.450Z,1.83
2023-02-26T21:34:59.883Z,1.85
2023-02-26T21:37:26.724Z,1.87
2023-02-26T21:39:53.222Z,1.96
2023-02-26T21:42:19.922Z,2.03
2023-02-26T21:44:48.510Z,1.88
2023-02-26T21:47:15.129Z,1.87
2023-02-26T21:49:41.513Z,1.87
2023-02-26T21:52:08.189Z,1.65
2023-02-26T21:54:34.690Z,1.71
2023-02-26T21:57:01.116Z,1.61
2023-02-26T21:59:27.774Z,1.57
2023-02-26T22:01:54.213Z,1.44
2023-02-26T22:04:20.673Z,1.43
2023-02-26T22:06:47.354Z,1.40
2023-02-26T22:09:14.124Z,1.20
2023-02-26T22:11:40.516Z,1.32
2023-02-26T22:14:06.935Z,1.44
2023-02-26T22:16:33.361Z,1.26
2023-02-26T22:18:59.755Z,1.16
2023-02-26T22:21:26.460Z,1.07
2023-02-26T22:23:53.053Z,1.14
2023-02-26T22:26:19.445Z,1.00
2023-02-26T22:28:45.879Z,0.93
2023-02-26T22:31:12.380Z,1.05
2023-02-26T22:33:38.975Z,1.22
2023-02-26T22:36:05.587Z,1.16
2023-02-26T22:38:32.037Z,1.14
2023-02-26T22:40:58.424Z,1.17
2023-02-26T22:43:24.848Z,1.11
2023-02-26T22:45:51.226Z,1.01
2023-02-26T22:48:17.630Z,0.92
2023-02-26T22:50:44.299Z,0.78
2023-02-26T22:53:10.735Z,0.88
2023-02-26T22:55:37.147Z,0.78
2023-02-26T22:58:04.672Z,0.78
2023-02-26T23:00:31.045Z,0.76
2023-02-26T23:02:57.453Z,0.85
2023-02-26T23:05:23.956Z,0.59
2023-02-26T23:07:50.378Z,0.70
2023-02-26T23:10:19.064Z,0.89
2023-02-26T23:12:46.890Z,0.77
2023-02-26T23:15:14.621Z,0.81
2023-02-26T23:17:42.377Z,0.84
2023-02-26T23:20:13.669Z,0.70
2023-02-26T23:22:41.301Z,0.62
2023-02-26T23:25:08.054Z,0.66
2023-02-26T23:27:34.719Z,0.51
2023-02-26T23:30:01.277Z,0.63
2023-02-26T23:32:27.715Z,0.55
2023-02-26T23:34:54.125Z,0.61
2023-02-26T23:37:20.671Z,0.46
2023-02-26T23:39:48.940Z,0.54
2023-02-26T23:42:15.529Z,0.62
2023-02-26T23:44:41.881Z,0.67
2023-02-26T23:47:08.244Z,0.57
2023-02-26T23:49:34.626Z,0.26
2023-02-26T23:52:00.962Z,0.40
2023-02-26T23:54:27.326Z,0.46
2023-02-26T23:56:53.689Z,0.52
2023-02-26T23:59:20.048Z,0.49
